createdAt,value
2024-01-17T00:00:05.725Z,114.65
2024-01-17T00:01:05.063Z,114.19
2024-01-17T00:02:04.930Z,114.50
2024-01-17T00:03:05.023Z,114.62
2024-01-17T00:04:04.910Z,114.70
2024-01-17T00:05:04.911Z,114.69
2024-01-17T00:06:04.942Z,114.52
2024-01-17T00:07:05.042Z,114.79
2024-01-17T00:08:04.974Z,116.40
2024-01-17T00:09:04.980Z,114.46
2024-01-17T00:10:04.910Z,114.45
2024-01-17T00:11:04.901Z,114.34
2024-01-17T00:12:04.922Z,113.55
2024-01-17T00:13:04.886Z,113.26
2024-01-17T00:14:04.882Z,114.05
2024-01-17T00:15:05.010Z,113.24
2024-01-17T00:16:04.997Z,114.08
2024-01-17T00:17:05.155Z,113.52
2024-01-17T00:18:05.184Z,113.55
2024-01-17T00:19:05.294Z,112.88
2024-01-17T00:20:05.140Z,114.19
2024-01-17T00:21:05.336Z,114.44
2024-01-17T00:22:05.265Z,113.46
2024-01-17T00:23:05.312Z,113.47
2024-01-17T00:24:05.472Z,115.07
2024-01-17T00:25:05.431Z,112.98
2024-01-17T00:26:05.475Z,112.57
2024-01-17T00:27:05.521Z,112.64
2024-01-17T00:28:05.476Z,112.71
2024-01-17T00:29:05.474Z,113.01
2024-01-17T00:30:05.626Z,113.37
2024-01-17T00:31:05.483Z,114.19
2024-01-17T00:32:05.456Z,115.46
2024-01-17T00:33:05.696Z,114.49
2024-01-17T00:34:05.575Z,114.13
2024-01-17T00:35:05.469Z,110.90
2024-01-17T00:36:05.529Z,113.19
2024-01-17T00:37:05.416Z,114.26
2024-01-17T00:38:05.425Z,112.14
2024-01-17T00:39:05.510Z,111.85
2024-01-17T00:40:05.518Z,113.18
2024-01-17T00:41:05.591Z,111.71
2024-01-17T00:42:05.699Z,112.54
2024-01-17T00:43:05.695Z,113.63
2024-01-17T00:44:05.760Z,113.36
2024-01-17T00:45:05.867Z,112.80
2024-01-17T00:46:05.841Z,113.04
2024-01-17T00:47:05.908Z,113.96
2024-01-17T00:48:06.054Z,111.06
2024-01-17T00:49:06.091Z,111.16
2024-01-17T00:50:05.925Z,111.35
2024-01-17T00:51:05.959Z,112.08
2024-01-17T00:52:05.965Z,112.03
2024-01-17T00:53:05.934Z,111.42
2024-01-17T00:54:05.961Z,113.54
2024-01-17T00:55:05.902Z,111.04
2024-01-17T00:56:05.893Z,111.16
2024-01-17T00:57:05.931Z,111.24
2024-01-17T00:58:05.914Z,111.36
2024-01-17T00:59:05.880Z,111.27
2024-01-17T01:00:05.907Z,111.42
2024-01-17T01:01:05.892Z,111.87
2024-01-17T01:02:05.858Z,111.67
2024-01-17T01:03:05.945Z,111.23
2024-01-17T01:04:05.916Z,111.62
2024-01-17T01:05:05.947Z,111.43
2024-01-17T01:06:05.884Z,111.88
2024-01-17T01:07:05.834Z,110.76
2024-01-17T01:08:05.865Z,111.04
2024-01-17T01:09:05.910Z,110.82
2024-01-17T01:10:05.826Z,112.21
2024-01-17T01:11:05.799Z,110.92
2024-01-17T01:12:05.878Z,111.06
2024-01-17T01:13:05.830Z,108.68
2024-01-17T01:14:05.903Z,111.09
2024-01-17T01:15:05.973Z,111.28
2024-01-17T01:16:06.009Z,110.82
2024-01-17T01:17:06.071Z,110.05
2024-01-17T01:18:06.668Z,110.65
2024-01-17T01:19:06.351Z,111.33
2024-01-17T01:20:06.227Z,110.06
2024-01-17T01:21:06.472Z,110.76
2024-01-17T01:22:06.341Z,109.81
2024-01-17T01:23:06.395Z,109.40
2024-01-17T01:24:06.604Z,109.73
2024-01-17T01:25:06.445Z,109.80
2024-01-17T01:26:06.441Z,109.88
2024-01-17T01:27:06.473Z,109.79
2024-01-17T01:28:06.460Z,110.08
2024-01-17T01:29:06.451Z,109.84
2024-01-17T01:30:06.596Z,109.98
2024-01-17T01:31:06.563Z,109.85
2024-01-17T01:32:06.446Z,109.84
2024-01-17T01:33:06.588Z,109.97
2024-01-17T01:34:06.515Z,110.58
2024-01-17T01:35:06.505Z,109.77
2024-01-17T01:36:06.552Z,110.00
2024-01-17T01:37:06.578Z,110.14
2024-01-17T01:38:06.486Z,109.22
2024-01-17T01:39:06.517Z,109.42
2024-01-17T01:40:06.485Z,109.17
2024-01-17T01:41:06.495Z,110.91
2024-01-17T01:42:06.630Z,109.24
2024-01-17T01:43:06.499Z,109.30
2024-01-17T01:44:06.488Z,109.45
2024-01-17T01:45:06.621Z,109.36
2024-01-17T01:46:06.500Z,109.57
2024-01-17T01:47:06.496Z,110.71
2024-01-17T01:48:06.613Z,107.96
2024-01-17T01:49:06.639Z,108.59
2024-01-17T01:50:06.474Z,107.67
2024-01-17T01:51:06.507Z,108.61
2024-01-17T01:52:06.477Z,107.52
2024-01-17T01:53:06.585Z,107.61
2024-01-17T01:54:06.626Z,107.55
2024-01-17T01:55:06.467Z,108.46
2024-01-17T01:56:06.456Z,107.89
2024-01-17T01:57:06.563Z,106.14
2024-01-17T01:58:06.444Z,110.23
2024-01-17T01:59:06.458Z,108.71
2024-01-17T02:00:06.536Z,107.31
2024-01-17T02:01:06.533Z,107.83
2024-01-17T02:02:06.501Z,107.71
2024-01-17T02:03:06.532Z,107.73
2024-01-17T02:04:06.534Z,107.99
2024-01-17T02:05:06.485Z,107.63
2024-01-17T02:06:06.462Z,108.36
2024-01-17T02:07:06.458Z,108.09
2024-01-17T02:08:06.452Z,107.59
2024-01-17T02:09:06.639Z,106.70
2024-01-17T02:10:06.422Z,106.45
2024-01-17T02:11:08.807Z,105.48
2024-01-17T02:12:06.509Z,106.88
2024-01-17T02:13:06.393Z,107.46
2024-01-17T02:14:06.395Z,106.75
2024-01-17T02:15:06.537Z,106.02
2024-01-17T02:16:06.382Z,107.35
2024-01-17T02:17:06.391Z,107.37
2024-01-17T02:18:06.470Z,107.45
2024-01-17T02:19:06.444Z,107.51
2024-01-17T02:20:06.371Z,107.35
2024-01-17T02:21:06.469Z,106.49
2024-01-17T02:22:06.386Z,107.41
2024-01-17T02:23:06.364Z,107.54
2024-01-17T02:24:06.378Z,107.40
2024-01-17T02:25:06.355Z,107.59
2024-01-17T02:26:06.364Z,107.19
2024-01-17T02:27:06.468Z,107.16
2024-01-17T02:28:06.347Z,108.21
2024-01-17T02:29:06.338Z,106.94
2024-01-17T02:30:06.440Z,107.03
2024-01-17T02:31:06.387Z,107.69
2024-01-17T02:32:06.395Z,106.38
2024-01-17T02:33:06.409Z,107.26
2024-01-17T02:34:06.498Z,105.71
2024-01-17T02:35:06.311Z,105.43
2024-01-17T02:36:06.457Z,105.62
2024-01-17T02:37:06.321Z,105.23
2024-01-17T02:38:06.374Z,106.98
2024-01-17T02:39:06.473Z,105.22
2024-01-17T02:40:06.580Z,104.81
2024-01-17T02:41:06.688Z,104.78
2024-01-17T02:42:06.755Z,104.13
2024-01-17T02:43:06.685Z,105.92
2024-01-17T02:44:06.690Z,105.97
2024-01-17T02:45:06.896Z,104.73
2024-01-17T02:46:06.694Z,106.39
2024-01-17T02:47:06.695Z,105.21
2024-01-17T02:48:06.701Z,105.84
2024-01-17T02:49:06.778Z,103.41
2024-01-17T02:50:06.654Z,103.49
2024-01-17T02:51:06.763Z,103.56
2024-01-17T02:52:06.639Z,104.03
2024-01-17T02:53:06.633Z,104.19
2024-01-17T02:54:06.674Z,104.54
2024-01-17T02:55:06.617Z,103.51
2024-01-17T02:56:06.626Z,103.91
2024-01-17T02:57:06.751Z,104.06
2024-01-17T02:58:06.642Z,104.72
2024-01-17T02:59:06.608Z,105.58
2024-01-17T03:00:06.676Z,104.73
2024-01-17T03:01:06.640Z,104.40
2024-01-17T03:02:06.592Z,104.96
2024-01-17T03:03:06.665Z,104.80
2024-01-17T03:04:06.594Z,105.05
2024-01-17T03:05:06.635Z,104.76
2024-01-17T03:06:06.640Z,104.96
2024-01-17T03:07:06.609Z,105.03
2024-01-17T03:08:06.561Z,105.50
2024-01-17T03:09:06.586Z,104.66
2024-01-17T03:10:06.573Z,104.21
2024-01-17T03:11:06.564Z,104.24
2024-01-17T03:12:06.692Z,103.93
2024-01-17T03:13:06.615Z,104.47
2024-01-17T03:14:06.500Z,104.43
2024-01-17T03:15:06.598Z,104.24
2024-01-17T03:16:06.479Z,104.37
2024-01-17T03:17:06.476Z,103.88
2024-01-17T03:18:06.529Z,103.28
2024-01-17T03:19:06.584Z,104.26
2024-01-17T03:20:06.449Z,103.83
2024-01-17T03:21:06.559Z,103.82
2024-01-17T03:22:06.420Z,104.23
2024-01-17T03:23:06.433Z,103.43
2024-01-17T03:24:06.534Z,104.12
2024-01-17T03:25:06.397Z,103.30
2024-01-17T03:26:06.412Z,102.90
2024-01-17T03:27:06.422Z,104.71
2024-01-17T03:28:06.372Z,102.85
2024-01-17T03:29:06.452Z,102.92
2024-01-17T03:30:06.534Z,103.04
2024-01-17T03:31:06.382Z,102.88
2024-01-17T03:32:06.361Z,103.09
2024-01-17T03:33:06.589Z,103.80
2024-01-17T03:34:06.518Z,103.10
2024-01-17T03:35:06.340Z,102.20
2024-01-17T03:36:06.372Z,102.90
2024-01-17T03:37:08.738Z,102.81
2024-01-17T03:38:06.322Z,103.08
2024-01-17T03:39:06.356Z,102.93
2024-01-17T03:40:06.307Z,102.30
2024-01-17T03:41:06.296Z,103.43
2024-01-17T03:42:06.381Z,99.67
2024-01-17T03:43:06.289Z,100.81
2024-01-17T03:44:06.270Z,102.62
2024-01-17T03:45:06.461Z,102.65
2024-01-17T03:46:06.273Z,102.65
2024-01-17T03:47:06.260Z,102.84
2024-01-17T03:48:06.318Z,102.87
2024-01-17T03:49:06.419Z,102.34
2024-01-17T03:50:06.256Z,101.10
2024-01-17T03:51:06.247Z,101.66
2024-01-17T03:52:06.217Z,102.69
2024-01-17T03:53:06.196Z,100.38
2024-01-17T03:54:06.237Z,100.60
2024-01-17T03:55:06.224Z,100.30
2024-01-17T03:56:06.261Z,101.81
2024-01-17T03:57:06.657Z,100.46
2024-01-17T03:58:06.380Z,99.58
2024-01-17T03:59:06.440Z,99.39
2024-01-17T04:00:06.570Z,98.02
2024-01-17T04:01:06.749Z,100.13
2024-01-17T04:02:06.643Z,100.54
2024-01-17T04:03:06.714Z,100.59
2024-01-17T04:04:06.650Z,100.69
2024-01-17T04:05:06.638Z,100.35
2024-01-17T04:06:06.686Z,100.96
2024-01-17T04:07:06.626Z,100.56
2024-01-17T04:08:06.584Z,100.85
2024-01-17T04:09:06.677Z,100.57
2024-01-17T04:10:06.564Z,100.85
2024-01-17T04:11:06.563Z,99.84
2024-01-17T04:12:06.679Z,100.62
2024-01-17T04:13:06.527Z,101.46
2024-01-17T04:14:06.509Z,98.77
2024-01-17T04:15:06.526Z,100.11
2024-01-17T04:16:06.478Z,99.66
2024-01-17T04:17:06.484Z,100.85
2024-01-17T04:18:06.553Z,99.79
2024-01-17T04:19:06.530Z,100.87
2024-01-17T04:20:06.435Z,98.61
2024-01-17T04:21:06.492Z,98.64
2024-01-17T04:22:06.440Z,100.51
2024-01-17T04:23:07.494Z,99.77
2024-01-17T04:24:06.556Z,99.13
2024-01-17T04:25:06.426Z,99.14
2024-01-17T04:26:06.389Z,99.31
2024-01-17T04:27:06.444Z,99.19
2024-01-17T04:28:06.373Z,99.18
2024-01-17T04:29:06.384Z,99.16
2024-01-17T04:30:13.777Z,50.00
2024-01-17T04:31:20.984Z,50.00
2024-01-17T04:32:21.122Z,50.00
2024-01-17T04:33:21.057Z,50.00
2024-01-17T04:34:21.135Z,50.00
2024-01-17T04:35:20.955Z,50.00
2024-01-17T04:36:20.950Z,51.03
2024-01-17T04:37:20.941Z,51.52
2024-01-17T04:38:20.947Z,50.35
2024-01-17T04:39:20.922Z,50.63
2024-01-17T04:40:20.927Z,50.98
2024-01-17T04:41:20.908Z,51.72
2024-01-17T04:42:20.928Z,53.17
2024-01-17T04:43:20.907Z,52.10
2024-01-17T04:44:20.887Z,50.22
2024-01-17T04:45:20.889Z,51.51
2024-01-17T04:46:20.888Z,51.23
2024-01-17T04:47:20.908Z,51.90
2024-01-17T04:48:21.173Z,51.49
2024-01-17T04:49:20.981Z,51.88
2024-01-17T04:50:20.885Z,53.42
2024-01-17T04:51:20.856Z,53.00
2024-01-17T04:52:20.833Z,53.21
2024-01-17T04:53:20.834Z,52.51
2024-01-17T04:54:20.813Z,51.48
2024-01-17T04:55:20.798Z,51.33
2024-01-17T04:56:20.819Z,51.41
2024-01-17T04:57:20.806Z,51.50
2024-01-17T04:58:20.788Z,52.28
2024-01-17T04:59:20.766Z,52.44
2024-01-17T05:00:20.786Z,52.58
2024-01-17T05:01:20.758Z,51.45
2024-01-17T05:02:20.766Z,51.42
2024-01-17T05:03:20.748Z,51.61
2024-01-17T05:04:20.907Z,51.63
2024-01-17T05:05:20.810Z,51.87
2024-01-17T05:06:20.896Z,52.97
2024-01-17T05:07:20.716Z,54.03
2024-01-17T05:08:20.715Z,51.70
2024-01-17T05:09:20.712Z,51.75
2024-01-17T05:10:20.724Z,51.13
2024-01-17T05:11:20.774Z,52.36
2024-01-17T05:12:20.839Z,51.88
2024-01-17T05:13:20.881Z,52.33
2024-01-17T05:14:20.924Z,52.50
2024-01-17T05:15:20.975Z,52.67
2024-01-17T05:16:21.069Z,53.45
2024-01-17T05:17:21.136Z,53.83
2024-01-17T05:18:21.236Z,54.18
2024-01-17T05:19:21.385Z,51.87
2024-01-17T05:20:21.178Z,51.95
2024-01-17T05:21:21.189Z,52.37
2024-01-17T05:22:21.212Z,52.38
2024-01-17T05:23:21.163Z,52.58
2024-01-17T05:24:21.152Z,51.64
2024-01-17T05:25:21.146Z,52.22
2024-01-17T05:26:21.135Z,51.38
2024-01-17T05:27:21.131Z,52.60
2024-01-17T05:28:21.145Z,53.22
2024-01-17T05:29:21.204Z,51.36
2024-01-17T05:30:21.292Z,51.41
2024-01-17T05:31:21.263Z,51.45
2024-01-17T05:32:21.170Z,51.60
2024-01-17T05:33:21.343Z,51.92
2024-01-17T05:34:21.212Z,51.51
2024-01-17T05:35:21.153Z,51.50
2024-01-17T05:36:21.281Z,51.69
2024-01-17T05:37:21.142Z,52.00
2024-01-17T05:38:21.127Z,52.42
2024-01-17T05:39:21.117Z,52.67
2024-01-17T05:40:21.111Z,53.58
2024-01-17T05:41:21.112Z,52.03
2024-01-17T05:42:21.133Z,50.79
2024-01-17T05:43:21.097Z,53.08
2024-01-17T05:44:21.077Z,52.97
2024-01-17T05:45:21.115Z,53.10
2024-01-17T05:46:21.069Z,53.18
2024-01-17T05:47:21.099Z,53.08
2024-01-17T05:48:21.241Z,52.45
2024-01-17T05:49:21.131Z,53.32
2024-01-17T05:50:21.059Z,53.11
2024-01-17T05:51:21.070Z,53.08
2024-01-17T05:52:21.121Z,53.22
2024-01-17T05:53:21.065Z,53.09
2024-01-17T05:54:21.033Z,50.66
2024-01-17T05:55:21.017Z,51.99
2024-01-17T05:56:21.007Z,52.59
2024-01-17T05:57:21.002Z,50.00
2024-01-17T05:58:20.999Z,52.39
2024-01-17T05:59:21.070Z,51.05
2024-01-17T06:00:21.114Z,53.72
2024-01-17T06:01:21.171Z,50.14
2024-01-17T06:02:21.245Z,52.11
2024-01-17T06:03:21.519Z,51.93
2024-01-17T06:04:21.404Z,50.87
2024-01-17T06:05:21.411Z,50.00
2024-01-17T06:06:21.548Z,53.44
2024-01-17T06:07:21.571Z,51.65
2024-01-17T06:08:21.649Z,50.31
2024-01-17T06:09:21.621Z,53.98
2024-01-17T06:10:21.675Z,57.85
2024-01-17T06:11:21.730Z,57.51
2024-01-17T06:12:21.787Z,55.61
2024-01-17T06:13:21.827Z,54.04
2024-01-17T06:14:21.885Z,51.85
2024-01-17T06:15:21.955Z,54.68
2024-01-17T06:16:21.985Z,52.52
2024-01-17T06:17:22.055Z,54.72
2024-01-17T06:18:22.286Z,54.07
2024-01-17T06:19:22.209Z,52.03
2024-01-17T06:20:22.222Z,51.48
2024-01-17T06:21:22.264Z,52.22
2024-01-17T06:22:22.335Z,51.58
2024-01-17T06:23:22.375Z,50.00
2024-01-17T06:24:22.503Z,50.00
2024-01-17T06:25:22.494Z,50.00
2024-01-17T06:26:22.548Z,51.15
2024-01-17T06:27:22.733Z,50.95
2024-01-17T06:28:22.638Z,51.80
2024-01-17T06:29:22.684Z,51.87
2024-01-17T06:30:22.851Z,50.00
2024-01-17T06:31:22.856Z,51.25
2024-01-17T06:32:22.928Z,51.01
2024-01-17T06:33:22.981Z,50.98
2024-01-17T06:34:23.170Z,52.54
2024-01-17T06:35:23.128Z,51.26
2024-01-17T06:36:23.128Z,51.96
2024-01-17T06:37:23.093Z,52.02
2024-01-17T06:38:23.122Z,52.38
2024-01-17T06:39:23.095Z,52.09
2024-01-17T06:40:23.081Z,52.40
2024-01-17T06:41:23.084Z,52.72
2024-01-17T06:42:23.090Z,52.15
2024-01-17T06:43:23.094Z,52.97
2024-01-17T06:44:23.081Z,55.15
2024-01-17T06:45:23.121Z,58.58
2024-01-17T06:46:23.058Z,52.24
2024-01-17T06:47:23.383Z,53.54
2024-01-17T06:48:23.174Z,55.62
2024-01-17T06:49:23.172Z,59.50
2024-01-17T06:50:23.030Z,52.22
2024-01-17T06:51:23.027Z,53.41
2024-01-17T06:52:23.032Z,56.64
2024-01-17T06:53:23.013Z,58.20
2024-01-17T06:54:23.018Z,67.29
2024-01-17T06:55:22.984Z,59.35
2024-01-17T06:56:22.975Z,70.37
2024-01-17T06:57:23.069Z,64.78
2024-01-17T06:58:22.973Z,65.05
2024-01-17T06:59:22.993Z,65.61
2024-01-17T07:00:22.973Z,68.58
2024-01-17T07:01:23.004Z,69.02
2024-01-17T07:02:22.956Z,73.59
2024-01-17T07:03:22.978Z,76.03
2024-01-17T07:04:22.947Z,75.00
2024-01-17T07:05:22.973Z,76.85
2024-01-17T07:06:22.979Z,75.88
2024-01-17T07:07:22.918Z,79.34
2024-01-17T07:08:22.926Z,81.89
2024-01-17T07:09:22.937Z,83.98
2024-01-17T07:10:22.864Z,90.04
2024-01-17T07:11:22.840Z,91.48
2024-01-17T07:12:23.017Z,92.80
2024-01-17T07:13:22.834Z,92.93
2024-01-17T07:14:22.809Z,93.65
2024-01-17T07:15:22.913Z,96.07
2024-01-17T07:16:22.770Z,93.19
2024-01-17T07:17:22.775Z,94.90
2024-01-17T07:18:22.951Z,98.38
2024-01-17T07:19:22.742Z,105.18
2024-01-17T07:20:22.760Z,112.50
2024-01-17T07:21:22.775Z,114.56
2024-01-17T07:22:22.715Z,117.17
2024-01-17T07:23:22.711Z,118.64
2024-01-17T07:24:22.764Z,119.34
2024-01-17T07:25:22.650Z,121.58
2024-01-17T07:26:22.668Z,126.20
2024-01-17T07:27:22.659Z,126.33
2024-01-17T07:28:22.649Z,127.97
2024-01-17T07:29:22.616Z,130.36
2024-01-17T07:30:22.723Z,131.58
2024-01-17T07:31:22.571Z,135.65
2024-01-17T07:32:22.552Z,136.31
2024-01-17T07:33:22.762Z,138.56
2024-01-17T07:34:22.682Z,137.68
2024-01-17T07:35:22.490Z,140.74
2024-01-17T07:36:22.555Z,141.95
2024-01-17T07:37:22.448Z,140.81
2024-01-17T07:38:22.445Z,140.89
2024-01-17T07:39:22.477Z,141.28
2024-01-17T07:40:22.420Z,142.31
2024-01-17T07:41:22.368Z,143.24
2024-01-17T07:42:22.451Z,141.90
2024-01-17T07:43:22.319Z,136.76
2024-01-17T07:44:22.343Z,146.18
2024-01-17T07:45:22.388Z,142.20
2024-01-17T07:46:22.384Z,145.12
2024-01-17T07:47:22.456Z,136.48
2024-01-17T07:48:22.463Z,114.71
2024-01-17T07:49:22.519Z,88.19
2024-01-17T07:50:22.301Z,71.33
2024-01-17T07:51:22.366Z,63.39
2024-01-17T07:52:22.318Z,43.37
2024-01-17T07:53:22.335Z,46.48
2024-01-17T07:54:22.412Z,46.61
2024-01-17T07:55:22.398Z,55.65
2024-01-17T07:56:22.300Z,65.39
2024-01-17T07:57:23.228Z,85.98
2024-01-17T07:58:22.311Z,122.57
2024-01-17T07:59:22.375Z,147.63
2024-01-17T08:00:23.213Z,139.75
2024-01-17T08:01:22.374Z,122.72
2024-01-17T08:02:22.261Z,114.32
2024-01-17T08:03:22.458Z,104.99
2024-01-17T08:04:22.341Z,100.47
2024-01-17T08:05:22.326Z,102.99
2024-01-17T08:06:22.464Z,98.70
2024-01-17T08:07:22.484Z,86.73
2024-01-17T08:08:22.423Z,86.22
2024-01-17T08:09:22.615Z,87.87
2024-01-17T08:10:22.558Z,77.38
2024-01-17T08:11:22.630Z,77.95
2024-01-17T08:12:22.675Z,72.54
2024-01-17T08:13:22.656Z,68.23
2024-01-17T08:14:22.792Z,67.23
2024-01-17T08:15:22.726Z,72.71
2024-01-17T08:16:22.741Z,69.18
2024-01-17T08:17:22.841Z,67.60
2024-01-17T08:18:22.921Z,67.86
2024-01-17T08:19:23.244Z,62.03
2024-01-17T08:20:23.387Z,64.95
2024-01-17T08:21:23.055Z,59.37
2024-01-17T08:22:22.960Z,66.97
2024-01-17T08:23:22.994Z,63.77
2024-01-17T08:24:23.046Z,59.74
2024-01-17T08:25:23.050Z,59.86
2024-01-17T08:26:23.032Z,60.52
2024-01-17T08:27:23.029Z,60.04
2024-01-17T08:28:23.003Z,60.39
2024-01-17T08:29:23.008Z,60.11
2024-01-17T08:30:23.194Z,56.78
2024-01-17T08:31:22.981Z,57.06
2024-01-17T08:32:23.115Z,59.61
2024-01-17T08:33:23.066Z,56.89
2024-01-17T08:34:23.015Z,56.96
2024-01-17T08:35:22.934Z,57.80
2024-01-17T08:36:22.948Z,59.40
2024-01-17T08:37:22.905Z,65.84
2024-01-17T08:38:22.876Z,64.35
2024-01-17T08:39:22.870Z,76.15
2024-01-17T08:40:22.845Z,73.06
2024-01-17T08:41:22.841Z,76.28
2024-01-17T08:42:22.931Z,94.96
2024-01-17T08:43:22.808Z,102.57
2024-01-17T08:44:22.798Z,101.36
2024-01-17T08:45:22.828Z,101.46
2024-01-17T08:46:22.780Z,90.37
2024-01-17T08:47:22.802Z,77.72
2024-01-17T08:48:22.896Z,60.06
2024-01-17T08:49:22.889Z,46.94
2024-01-17T08:50:22.885Z,43.91
2024-01-17T08:51:22.955Z,43.81
2024-01-17T08:52:23.024Z,50.00
2024-01-17T08:53:23.052Z,50.00
2024-01-17T08:54:23.125Z,54.42
2024-01-17T08:55:23.203Z,60.71
2024-01-17T08:56:23.265Z,69.72
2024-01-17T08:57:23.333Z,78.86
2024-01-17T08:58:23.303Z,79.12
2024-01-17T08:59:23.307Z,80.69
2024-01-17T09:00:23.326Z,84.91
2024-01-17T09:01:25.931Z,94.60
2024-01-17T09:02:23.719Z,109.73
2024-01-17T09:03:23.333Z,118.18
2024-01-17T09:04:23.247Z,119.92
2024-01-17T09:05:23.323Z,120.14
2024-01-17T09:06:23.413Z,121.49
2024-01-17T09:07:26.002Z,124.75
2024-01-17T09:08:23.340Z,129.59
2024-01-17T09:09:23.267Z,135.65
2024-01-17T09:10:23.255Z,136.59
2024-01-17T09:11:23.232Z,135.57
2024-01-17T09:12:23.180Z,139.16
2024-01-17T09:13:23.161Z,138.64
2024-01-17T09:14:23.190Z,140.87
2024-01-17T09:15:23.141Z,141.97
2024-01-17T09:16:23.102Z,146.25
2024-01-17T09:17:23.143Z,142.26
2024-01-17T09:18:23.166Z,137.82
2024-01-17T09:19:23.244Z,133.93
2024-01-17T09:20:23.101Z,135.27
2024-01-17T09:21:23.140Z,135.60
2024-01-17T09:22:23.043Z,133.12
2024-01-17T09:23:23.039Z,136.31
2024-01-17T09:24:23.065Z,134.11
2024-01-17T09:25:23.003Z,142.60
2024-01-17T09:26:22.996Z,139.98
2024-01-17T09:27:23.081Z,140.23
2024-01-17T09:28:22.967Z,141.85
2024-01-17T09:29:22.965Z,142.77
2024-01-17T09:30:22.946Z,142.75
2024-01-17T09:31:22.889Z,148.36
2024-01-17T09:32:23.854Z,150.10
2024-01-17T09:33:23.076Z,151.89
2024-01-17T09:34:22.944Z,149.32
2024-01-17T09:35:22.823Z,160.88
2024-01-17T09:36:22.887Z,167.70
2024-01-17T09:37:22.792Z,175.21
2024-01-17T09:38:22.824Z,175.25
2024-01-17T09:39:22.837Z,176.50
2024-01-17T09:40:22.776Z,179.21
2024-01-17T09:41:22.770Z,184.99
2024-01-17T09:42:23.135Z,187.41
2024-01-17T09:43:22.793Z,179.68
2024-01-17T09:44:23.289Z,182.32
2024-01-17T09:45:22.730Z,176.96
2024-01-17T09:46:22.705Z,174.12
2024-01-17T09:47:22.758Z,174.93
2024-01-17T09:48:22.769Z,180.14
2024-01-17T09:49:22.765Z,174.96
2024-01-17T09:50:22.644Z,174.21
2024-01-17T09:51:22.637Z,168.93
2024-01-17T09:52:22.684Z,156.62
2024-01-17T09:53:22.584Z,146.70
2024-01-17T09:54:22.665Z,134.43
2024-01-17T09:55:22.600Z,121.19
2024-01-17T09:56:22.600Z,110.98
2024-01-17T09:57:22.629Z,101.68
2024-01-17T09:58:22.754Z,97.86
2024-01-17T09:59:22.593Z,92.38
2024-01-17T10:00:22.618Z,83.48
2024-01-17T10:01:22.538Z,79.96
2024-01-17T10:02:22.531Z,75.11
2024-01-17T10:03:22.715Z,69.78
2024-01-17T10:04:22.651Z,67.64
2024-01-17T10:05:22.735Z,64.35
2024-01-17T10:06:22.742Z,56.82
2024-01-17T10:07:22.752Z,54.19
2024-01-17T10:08:22.883Z,50.00
2024-01-17T10:09:22.848Z,52.29
2024-01-17T10:10:23.654Z,49.12
2024-01-17T10:11:22.956Z,50.08
2024-01-17T10:12:23.099Z,50.42
2024-01-17T10:13:23.085Z,50.00
2024-01-17T10:14:23.104Z,50.52
2024-01-17T10:15:23.206Z,51.06
2024-01-17T10:16:23.125Z,50.38
2024-01-17T10:17:23.134Z,47.73
2024-01-17T10:18:23.203Z,41.34
2024-01-17T10:19:23.177Z,37.34
2024-01-17T10:20:23.103Z,34.73
2024-01-17T10:21:23.113Z,48.72
2024-01-17T10:22:23.118Z,45.72
2024-01-17T10:23:23.079Z,41.87
2024-01-17T10:24:23.133Z,38.75
2024-01-17T10:25:23.077Z,34.57
2024-01-17T10:26:23.089Z,33.63
2024-01-17T10:27:23.123Z,30.55
2024-01-17T10:28:23.090Z,28.18
2024-01-17T10:29:23.053Z,28.76
2024-01-17T10:30:23.136Z,26.60
2024-01-17T10:31:23.073Z,42.96
2024-01-17T10:32:23.065Z,51.76
2024-01-17T10:33:23.193Z,50.77
2024-01-17T10:34:23.243Z,50.00
2024-01-17T10:35:23.065Z,53.15
2024-01-17T10:36:23.176Z,53.73
2024-01-17T10:37:23.053Z,55.52
2024-01-17T10:38:23.032Z,54.81
2024-01-17T10:39:23.122Z,56.35
2024-01-17T10:40:23.067Z,57.39
2024-01-17T10:41:23.068Z,56.73
2024-01-17T10:42:23.182Z,56.88
2024-01-17T10:43:23.157Z,63.68
2024-01-17T10:44:23.235Z,80.88
2024-01-17T10:45:23.309Z,94.68
2024-01-17T10:46:23.300Z,108.73
2024-01-17T10:47:23.399Z,125.23
2024-01-17T10:48:23.534Z,137.37
2024-01-17T10:49:23.605Z,149.46
2024-01-17T10:50:23.549Z,158.84
2024-01-17T10:51:23.680Z,166.22
2024-01-17T10:52:27.618Z,174.54
2024-01-17T10:53:23.666Z,174.82
2024-01-17T10:54:23.702Z,176.57
2024-01-17T10:55:23.667Z,182.00
2024-01-17T10:56:23.741Z,192.25
2024-01-17T10:57:23.681Z,205.34
2024-01-17T10:58:23.595Z,199.11
2024-01-17T10:59:23.608Z,200.00
2024-01-17T11:00:23.630Z,199.04
2024-01-17T11:01:23.570Z,199.18
2024-01-17T11:02:23.575Z,200.00
2024-01-17T11:03:23.640Z,199.95
2024-01-17T11:04:23.644Z,198.86
2024-01-17T11:05:23.549Z,199.47
2024-01-17T11:06:23.635Z,198.30
2024-01-17T11:07:23.523Z,200.00
2024-01-17T11:08:23.585Z,199.91
2024-01-17T11:09:23.554Z,199.29
2024-01-17T11:10:23.475Z,199.46
2024-01-17T11:11:23.493Z,198.95
2024-01-17T11:12:23.590Z,198.71
2024-01-17T11:13:23.529Z,198.80
2024-01-17T11:14:23.467Z,199.56
2024-01-17T11:15:23.595Z,199.58
2024-01-17T11:16:23.452Z,194.68
2024-01-17T11:17:29.639Z,192.52
2024-01-17T11:18:24.672Z,197.07
2024-01-17T11:19:23.630Z,199.59
2024-01-17T11:20:24.951Z,185.43
2024-01-17T11:21:23.482Z,150.23
2024-01-17T11:22:23.437Z,141.29
2024-01-17T11:23:23.415Z,138.79
2024-01-17T11:24:23.453Z,135.18
2024-01-17T11:25:23.438Z,135.90
2024-01-17T11:26:23.387Z,140.66
2024-01-17T11:27:23.418Z,152.51
2024-01-17T11:28:23.367Z,171.92
2024-01-17T11:29:23.345Z,200.35
2024-01-17T11:30:23.387Z,200.00
2024-01-17T11:31:23.366Z,198.93
2024-01-17T11:32:23.406Z,199.50
2024-01-17T11:33:24.395Z,198.21
2024-01-17T11:34:23.576Z,198.19
2024-01-17T11:35:23.400Z,198.47
2024-01-17T11:36:23.424Z,198.51
2024-01-17T11:37:23.425Z,198.72
2024-01-17T11:38:23.442Z,199.27
2024-01-17T11:39:23.446Z,198.75
2024-01-17T11:40:23.371Z,198.00
2024-01-17T11:41:23.375Z,197.10
2024-01-17T11:42:23.391Z,192.82
2024-01-17T11:43:23.344Z,186.78
2024-01-17T11:44:23.390Z,174.38
2024-01-17T11:45:23.481Z,164.36
2024-01-17T11:46:23.354Z,149.34
2024-01-17T11:47:23.419Z,129.78
2024-01-17T11:48:23.437Z,112.91
2024-01-17T11:49:23.382Z,100.22
2024-01-17T11:50:24.466Z,89.41
2024-01-17T11:51:23.520Z,83.73
2024-01-17T11:52:23.396Z,81.39
2024-01-17T11:53:23.492Z,83.11
2024-01-17T11:54:23.474Z,93.28
2024-01-17T11:55:23.391Z,93.48
2024-01-17T11:56:23.461Z,94.15
2024-01-17T11:57:23.457Z,99.70
2024-01-17T11:58:23.390Z,109.43
2024-01-17T11:59:23.364Z,120.72
2024-01-17T12:00:23.534Z,135.73
2024-01-17T12:01:23.359Z,139.51
2024-01-17T12:02:24.261Z,141.92
2024-01-17T12:03:23.356Z,142.76
2024-01-17T12:04:23.344Z,142.86
2024-01-17T12:05:23.307Z,143.26
2024-01-17T12:06:23.751Z,143.06
2024-01-17T12:07:23.414Z,143.13
2024-01-17T12:08:23.309Z,144.62
2024-01-17T12:09:25.755Z,147.80
2024-01-17T12:10:23.241Z,143.33
2024-01-17T12:11:23.211Z,143.26
2024-01-17T12:12:23.514Z,145.52
2024-01-17T12:13:23.264Z,150.78
2024-01-17T12:14:23.146Z,159.44
2024-01-17T12:15:23.227Z,172.82
2024-01-17T12:16:23.354Z,182.05
2024-01-17T12:17:23.091Z,181.61
2024-01-17T12:18:23.202Z,190.29
2024-01-17T12:19:23.222Z,196.78
2024-01-17T12:20:23.036Z,198.20
2024-01-17T12:21:24.705Z,199.35
2024-01-17T12:22:22.996Z,199.38
2024-01-17T12:23:23.003Z,197.03
2024-01-17T12:24:31.458Z,199.30
2024-01-17T12:25:23.951Z,199.35
2024-01-17T12:26:22.903Z,199.70
2024-01-17T12:27:22.988Z,200.05
2024-01-17T12:28:22.886Z,201.66
2024-01-17T12:29:22.878Z,199.45
2024-01-17T12:30:22.896Z,198.31
2024-01-17T12:31:22.806Z,199.50
2024-01-17T12:32:22.863Z,200.59
2024-01-17T12:33:26.148Z,193.80
2024-01-17T12:34:22.817Z,199.39
2024-01-17T12:35:22.778Z,200.17
2024-01-17T12:36:22.867Z,202.71
2024-01-17T12:37:22.714Z,207.82
2024-01-17T12:38:22.699Z,199.96